createdAt,value
2022-10-24T00:01:15.869Z,92.90
2022-10-24T00:03:43.267Z,93.30
2022-10-24T00:06:11.873Z,94.00
2022-10-24T00:08:39.167Z,94.50
2022-10-24T00:11:21.588Z,95.10
2022-10-24T00:13:48.581Z,95.30
2022-10-24T00:16:15.411Z,95.30
2022-10-24T00:18:42.363Z,95.70
2022-10-24T00:21:10.452Z,96.10
2022-10-24T00:23:37.557Z,96.40
2022-10-24T00:26:05.484Z,96.70
2022-10-24T00:28:34.576Z,96.40
2022-10-24T00:31:01.948Z,96.50
2022-10-24T00:33:29.078Z,96.60
2022-10-24T00:35:55.868Z,96.60
2022-10-24T00:38:22.759Z,96.50
2022-10-24T00:40:49.484Z,96.60
2022-10-24T00:43:19.236Z,97.00
2022-10-24T00:46:04.420Z,97.00
2022-10-24T00:48:57.636Z,96.90
2022-10-24T00:51:31.415Z,96.90
2022-10-24T00:54:01.606Z,97.00
2022-10-24T00:56:35.527Z,96.90
2022-10-24T00:59:06.492Z,97.10
2022-10-24T01:01:34.413Z,97.20
2022-10-24T01:04:02.111Z,96.80
2022-10-24T01:06:58.501Z,96.40
2022-10-24T01:09:58.836Z,96.10
2022-10-24T01:12:46.703Z,95.90
2022-10-24T01:15:16.434Z,95.80
2022-10-24T01:17:52.410Z,96.00
2022-10-24T01:20:38.039Z,96.00
2022-10-24T01:23:09.438Z,96.00
2022-10-24T01:25:42.212Z,95.90
2022-10-24T01:28:17.872Z,95.60
2022-10-24T01:30:53.164Z,95.90
2022-10-24T01:33:30.923Z,95.90
2022-10-24T01:36:15.553Z,95.60
2022-10-24T01:38:57.416Z,95.60
2022-10-24T01:41:28.491Z,95.60
2022-10-24T01:43:58.135Z,95.10
2022-10-24T01:46:32.145Z,94.70
2022-10-24T01:49:23.135Z,94.60
2022-10-24T01:51:54.584Z,94.20
2022-10-24T01:54:21.858Z,94.70
2022-10-24T01:56:48.844Z,94.20
2022-10-24T01:59:30.460Z,94.00
2022-10-24T02:02:11.604Z,94.00
2022-10-24T02:04:45.435Z,93.90
2022-10-24T02:07:14.148Z,93.90
2022-10-24T02:09:43.623Z,93.80
2022-10-24T02:12:13.843Z,93.20
2022-10-24T02:14:49.024Z,92.90
2022-10-24T02:17:17.033Z,92.70
2022-10-24T02:19:45.158Z,92.60
2022-10-24T02:22:21.633Z,92.70
2022-10-24T02:24:48.310Z,92.80
2022-10-24T02:27:26.129Z,92.60
2022-10-24T02:30:05.306Z,92.80
2022-10-24T02:32:41.988Z,92.70
2022-10-24T02:35:11.360Z,92.80
2022-10-24T02:37:44.311Z,92.60
2022-10-24T02:40:13.529Z,92.40
2022-10-24T02:42:42.855Z,92.30
2022-10-24T02:45:11.836Z,92.10
2022-10-24T02:47:40.896Z,92.10
2022-10-24T02:50:08.903Z,92.00
2022-10-24T02:52:38.423Z,91.50
2022-10-24T02:55:06.337Z,91.30
2022-10-24T02:57:33.112Z,91.00
2022-10-24T02:59:59.824Z,91.00
2022-10-24T03:02:26.851Z,90.70
2022-10-24T03:04:53.547Z,90.60
2022-10-24T03:07:20.393Z,90.50
2022-10-24T03:09:47.184Z,90.60
2022-10-24T03:12:15.809Z,90.50
2022-10-24T03:14:42.593Z,90.30
2022-10-24T03:17:09.542Z,90.30
2022-10-24T03:19:36.482Z,89.40
2022-10-24T03:22:03.276Z,90.00
2022-10-24T03:24:43.440Z,90.10
2022-10-24T03:27:11.988Z,90.00
2022-10-24T03:29:38.736Z,90.20
2022-10-24T03:32:06.464Z,89.50
2022-10-24T03:34:33.473Z,88.90
2022-10-24T03:37:00.220Z,88.20
2022-10-24T03:39:27.050Z,87.20
2022-10-24T03:41:53.817Z,86.90
2022-10-24T03:44:20.530Z,87.70
2022-10-24T03:46:47.260Z,85.90
2022-10-24T03:49:14.092Z,85.50
2022-10-24T03:51:40.818Z,85.60
2022-10-24T03:54:07.507Z,85.60
2022-10-24T03:56:34.338Z,84.80
2022-10-24T03:59:01.022Z,85.20
2022-10-24T04:01:28.035Z,86.20
2022-10-24T04:03:54.802Z,86.20
2022-10-24T04:06:21.515Z,86.90
2022-10-24T04:08:48.226Z,86.50
2022-10-24T04:11:14.963Z,87.00
2022-10-24T04:13:41.780Z,87.30
2022-10-24T04:16:09.004Z,87.70
2022-10-24T04:18:35.838Z,87.50
2022-10-24T04:21:03.851Z,88.50
2022-10-24T04:23:34.446Z,88.70
2022-10-24T04:26:01.619Z,88.90
2022-10-24T04:28:29.887Z,88.50
2022-10-24T04:30:57.703Z,87.50
2022-10-24T04:33:24.895Z,90.20
2022-10-24T04:35:52.588Z,90.50
2022-10-24T04:38:19.835Z,90.40
2022-10-24T04:40:54.146Z,90.80
2022-10-24T04:43:21.996Z,91.00
2022-10-24T04:45:49.102Z,90.90
2022-10-24T04:48:16.617Z,91.00
2022-10-24T04:50:44.723Z,90.90
2022-10-24T04:53:11.526Z,90.80
2022-10-24T04:55:38.526Z,90.50
2022-10-24T04:58:06.041Z,90.10
2022-10-24T05:00:33.189Z,90.40
2022-10-24T05:02:59.936Z,90.60
2022-10-24T05:05:26.667Z,90.50
2022-10-24T05:07:53.396Z,90.50
2022-10-24T05:10:20.229Z,90.30
2022-10-24T05:12:47.319Z,90.80
2022-10-24T05:15:15.051Z,91.30
2022-10-24T05:17:41.939Z,91.50
2022-10-24T05:20:09.407Z,92.00
2022-10-24T05:22:36.517Z,92.20
2022-10-24T05:25:03.851Z,92.00
2022-10-24T05:27:30.586Z,92.00
2022-10-24T05:29:57.332Z,91.90
2022-10-24T05:32:24.940Z,92.40
2022-10-24T05:34:51.993Z,92.30
2022-10-24T05:37:19.087Z,92.40
2022-10-24T05:39:45.864Z,92.00
2022-10-24T05:42:12.635Z,91.90
2022-10-24T05:44:39.471Z,91.30
2022-10-24T05:47:06.661Z,91.30
2022-10-24T05:49:33.706Z,91.20
2022-10-24T05:52:00.508Z,91.20
2022-10-24T05:54:33.303Z,91.10
2022-10-24T05:57:09.496Z,91.10
2022-10-24T05:59:36.266Z,91.10
2022-10-24T06:02:03.361Z,90.70
2022-10-24T06:04:30.139Z,90.90
2022-10-24T06:06:56.863Z,91.00
2022-10-24T06:09:23.678Z,91.30
2022-10-24T06:11:50.489Z,91.80
2022-10-24T06:14:17.207Z,92.00
2022-10-24T06:16:44.033Z,92.00
2022-10-24T06:19:10.889Z,92.30
2022-10-24T06:21:37.678Z,92.80
2022-10-24T06:24:04.677Z,92.90
2022-10-24T06:26:31.524Z,93.50
2022-10-24T06:28:58.259Z,93.60
2022-10-24T06:31:27.408Z,94.20
2022-10-24T06:33:55.619Z,94.40
2022-10-24T06:36:23.959Z,94.60
2022-10-24T06:38:51.488Z,94.60
2022-10-24T06:41:18.305Z,94.50
2022-10-24T06:43:45.018Z,94.30
2022-10-24T06:46:14.827Z,94.30
2022-10-24T06:48:41.683Z,93.90
2022-10-24T06:51:08.856Z,93.80
2022-10-24T06:53:35.665Z,93.70
2022-10-24T06:56:06.610Z,93.70
2022-10-24T06:58:37.261Z,93.40
2022-10-24T07:01:16.966Z,92.90
2022-10-24T07:03:44.211Z,93.10
2022-10-24T07:08:57.982Z,92.20
2022-10-24T07:11:25.605Z,92.60
2022-10-24T07:13:55.289Z,93.60
2022-10-24T07:16:25.664Z,94.20
2022-10-24T07:18:52.362Z,94.00
2022-10-24T07:21:22.920Z,94.20
2022-10-24T07:23:51.844Z,94.60
2022-10-24T07:26:19.749Z,95.00
2022-10-24T07:28:47.731Z,95.50
2022-10-24T07:31:18.309Z,96.20
2022-10-24T07:33:45.071Z,96.70
2022-10-24T07:36:17.962Z,97.10
2022-10-24T07:38:44.883Z,97.40
2022-10-24T07:41:11.915Z,97.60
2022-10-24T07:43:38.915Z,97.50
2022-10-24T07:46:10.597Z,97.70
2022-10-24T07:48:38.596Z,97.90
2022-10-24T07:51:07.429Z,98.20
2022-10-24T07:53:34.371Z,98.20
2022-10-24T07:56:01.923Z,98.20
2022-10-24T07:58:29.569Z,98.20
2022-10-24T08:01:02.218Z,98.20
2022-10-24T08:03:28.940Z,98.20
2022-10-24T08:05:57.078Z,98.60
2022-10-24T08:08:35.698Z,98.80
2022-10-24T08:11:15.819Z,99.10
2022-10-24T08:13:42.696Z,99.60
2022-10-24T08:16:12.439Z,99.90
2022-10-24T08:18:40.100Z,99.90
2022-10-24T08:21:09.692Z,99.90
2022-10-24T08:23:38.840Z,99.90
2022-10-24T08:26:10.159Z,99.90
2022-10-24T08:28:37.101Z,99.90
2022-10-24T08:31:06.931Z,99.90
2022-10-24T08:33:34.544Z,99.90
2022-10-24T08:36:05.183Z,99.90
2022-10-24T08:38:32.023Z,99.90
2022-10-24T08:41:00.119Z,99.90
2022-10-24T08:43:27.098Z,99.90
2022-10-24T08:46:49.083Z,99.90
2022-10-24T08:49:38.747Z,99.90
2022-10-24T08:52:30.434Z,99.90
2022-10-24T08:55:04.854Z,99.90
2022-10-24T08:57:34.991Z,99.90
2022-10-24T09:00:39.172Z,99.90
2022-10-24T09:06:22.998Z,99.90
2022-10-24T09:08:54.093Z,99.70
2022-10-24T09:11:42.339Z,99.70
2022-10-24T09:14:24.137Z,99.60
2022-10-24T09:17:12.081Z,99.50
2022-10-24T09:19:39.487Z,99.70
2022-10-24T09:22:08.004Z,99.50
2022-10-24T09:24:51.127Z,99.60
2022-10-24T09:27:28.729Z,99.80
2022-10-24T09:29:57.948Z,99.90
2022-10-24T09:32:27.801Z,99.90
2022-10-24T09:34:55.051Z,99.90
2022-10-24T09:37:44.394Z,99.70
2022-10-24T09:40:34.295Z,99.80
2022-10-24T09:43:16.029Z,99.90
2022-10-24T09:45:51.500Z,99.80
2022-10-24T09:48:50.185Z,99.90
2022-10-24T09:51:33.768Z,99.70
2022-10-24T09:54:20.774Z,99.50
2022-10-24T09:57:08.457Z,98.90
2022-10-24T09:59:44.122Z,98.80
2022-10-24T10:02:11.075Z,98.80
2022-10-24T10:04:39.029Z,99.00
2022-10-24T10:07:15.134Z,99.20
2022-10-24T10:09:58.741Z,98.80
2022-10-24T10:12:27.343Z,99.00
2022-10-24T10:14:55.091Z,99.00
2022-10-24T10:17:27.804Z,98.90
2022-10-24T10:19:55.853Z,98.80
2022-10-24T10:22:29.052Z,98.70
2022-10-24T10:24:56.605Z,98.50
2022-10-24T10:27:36.880Z,98.10
2022-10-24T10:30:12.629Z,97.60
2022-10-24T10:32:45.153Z,97.30
2022-10-24T10:35:18.099Z,96.60
2022-10-24T10:38:29.476Z,96.20
2022-10-24T10:41:15.748Z,96.10
2022-10-24T10:44:13.011Z,95.40
2022-10-24T10:46:59.285Z,95.00
2022-10-24T10:49:35.057Z,94.60
2022-10-24T10:52:29.020Z,94.20
2022-10-24T10:55:27.273Z,93.60
2022-10-24T10:58:23.321Z,93.00
2022-10-24T11:01:11.902Z,92.40
2022-10-24T11:03:41.497Z,93.30
2022-10-24T11:06:37.895Z,93.90
2022-10-24T11:09:44.396Z,94.40
2022-10-24T11:12:22.774Z,94.40
2022-10-24T11:14:55.150Z,94.80
2022-10-24T11:17:31.877Z,95.10
2022-10-24T11:20:26.066Z,95.60
2022-10-24T11:23:15.431Z,96.30
2022-10-24T11:25:52.300Z,96.40
2022-10-24T11:28:22.962Z,96.80
2022-10-24T11:31:15.205Z,96.90
2022-10-24T11:33:46.537Z,97.10
2022-10-24T11:36:13.339Z,97.20
2022-10-24T11:38:48.755Z,97.50
2022-10-24T11:41:39.898Z,97.70
2022-10-24T11:44:26.428Z,97.70
2022-10-24T11:47:06.578Z,98.00
2022-10-24T11:49:40.712Z,98.50
2022-10-24T11:52:27.704Z,98.50
2022-10-24T11:55:01.354Z,98.30
2022-10-24T11:57:30.005Z,98.40
2022-10-24T11:59:58.581Z,98.20
2022-10-24T12:03:02.861Z,98.10
2022-10-24T12:05:42.240Z,97.40
2022-10-24T12:08:26.578Z,97.00
2022-10-24T12:11:04.902Z,96.80
2022-10-24T12:14:07.175Z,96.00
2022-10-24T12:17:08.074Z,96.10
2022-10-24T12:19:36.860Z,96.20
2022-10-24T12:22:04.904Z,95.90
2022-10-24T12:24:35.860Z,95.90
2022-10-24T12:27:05.248Z,96.00
2022-10-24T12:29:34.533Z,96.10
2022-10-24T12:32:40.622Z,95.90
2022-10-24T12:35:34.036Z,95.90
2022-10-24T12:38:16.376Z,96.40
2022-10-24T12:40:46.626Z,96.90
2022-10-24T12:43:28.838Z,97.40
2022-10-24T12:45:56.611Z,97.20
2022-10-24T12:48:32.456Z,97.00
2022-10-24T12:51:27.600Z,96.60
2022-10-24T12:54:12.388Z,96.20
2022-10-24T12:56:51.525Z,96.50
2022-10-24T12:59:42.911Z,96.70
2022-10-24T13:02:15.899Z,96.60
2022-10-24T13:05:07.830Z,97.10
2022-10-24T13:08:11.566Z,97.00
2022-10-24T13:10:50.223Z,96.40
2022-10-24T13:13:41.648Z,96.20
2022-10-24T13:16:31.756Z,95.20
2022-10-24T13:19:10.312Z,94.60
2022-10-24T13:21:50.220Z,94.70
2022-10-24T13:24:16.898Z,94.70
2022-10-24T13:26:46.583Z,94.40
2022-10-24T13:29:20.712Z,94.30
2022-10-24T13:31:48.656Z,94.30
2022-10-24T13:34:18.354Z,94.20
2022-10-24T13:36:48.009Z,93.50
2022-10-24T13:39:26.324Z,93.50
2022-10-24T13:42:07.464Z,92.90
2022-10-24T13:44:37.005Z,92.70
2022-10-24T13:47:25.472Z,92.50
2022-10-24T13:50:00.450Z,92.40
2022-10-24T13:52:37.652Z,91.40
2022-10-24T13:55:46.615Z,91.00
2022-10-24T13:58:19.587Z,90.30
2022-10-24T14:00:57.026Z,90.30
2022-10-24T14:03:26.342Z,88.90
2022-10-24T14:05:55.619Z,89.70
2022-10-24T14:08:33.573Z,89.50
2022-10-24T14:11:06.415Z,89.40
2022-10-24T14:13:38.251Z,89.40
2022-10-24T14:16:07.507Z,88.90
2022-10-24T14:18:36.986Z,89.70
2022-10-24T14:21:05.452Z,90.30
2022-10-24T14:23:39.160Z,89.40
2022-10-24T14:26:19.537Z,89.30
2022-10-24T14:28:58.677Z,88.70
2022-10-24T14:31:31.121Z,87.50
2022-10-24T14:33:58.645Z,88.40
2022-10-24T14:36:31.624Z,88.00
2022-10-24T14:39:01.025Z,87.80
2022-10-24T14:41:41.467Z,87.20
2022-10-24T14:44:13.725Z,87.60
2022-10-24T14:46:42.759Z,87.00
2022-10-24T14:49:27.834Z,86.00
2022-10-24T14:52:16.696Z,85.60
2022-10-24T14:54:52.611Z,84.70
2022-10-24T14:57:21.652Z,83.90
2022-10-24T14:59:51.536Z,84.30
2022-10-24T15:02:23.426Z,84.30
2022-10-24T15:04:51.942Z,83.10
2022-10-24T15:07:36.591Z,83.90
2022-10-24T15:10:13.301Z,84.40
2022-10-24T15:13:10.473Z,84.30
2022-10-24T15:15:50.484Z,84.60
2022-10-24T15:18:22.131Z,84.50
2022-10-24T15:20:52.732Z,84.20
2022-10-24T15:23:28.783Z,84.50
2022-10-24T15:26:27.097Z,84.40
2022-10-24T15:29:01.898Z,84.50
2022-10-24T15:31:29.219Z,84.30
2022-10-24T15:33:56.105Z,85.10
2022-10-24T15:36:26.332Z,84.00
2022-10-24T15:39:02.095Z,83.60
2022-10-24T15:41:29.239Z,83.60
2022-10-24T15:43:57.230Z,83.60
2022-10-24T15:46:24.711Z,83.40
2022-10-24T15:48:52.258Z,84.20
2022-10-24T15:51:22.544Z,84.40
2022-10-24T15:53:50.394Z,84.40
2022-10-24T15:56:17.520Z,84.30
2022-10-24T15:58:44.445Z,84.60
2022-10-24T16:01:57.635Z,84.40
2022-10-24T16:04:24.539Z,83.90
2022-10-24T16:06:51.479Z,84.00
2022-10-24T16:09:26.702Z,83.60
2022-10-24T16:11:53.884Z,83.90
2022-10-24T16:14:22.232Z,83.20
2022-10-24T16:16:49.136Z,82.80
2022-10-24T16:19:15.852Z,82.80
2022-10-24T16:21:43.138Z,82.70
2022-10-24T16:24:10.832Z,81.60
2022-10-24T16:26:37.783Z,82.00
2022-10-24T16:29:05.633Z,82.20
2022-10-24T16:31:33.515Z,82.20
2022-10-24T16:34:00.406Z,82.30
2022-10-24T16:36:27.660Z,83.00
2022-10-24T16:38:54.665Z,82.70
2022-10-24T16:41:34.132Z,82.90
2022-10-24T16:44:01.143Z,83.00
2022-10-24T16:46:37.494Z,82.40
2022-10-24T16:51:38.259Z,82.20
2022-10-24T16:54:09.950Z,81.00
2022-10-24T16:56:48.644Z,80.00
2022-10-24T16:59:28.690Z,78.80
2022-10-24T17:01:55.602Z,77.90
2022-10-24T17:04:23.748Z,77.80
2022-10-24T17:06:50.489Z,78.20
2022-10-24T17:09:17.219Z,78.00
2022-10-24T17:11:45.947Z,77.80
2022-10-24T17:14:17.493Z,78.00
2022-10-24T17:16:52.403Z,78.40
2022-10-24T17:19:19.144Z,78.50
2022-10-24T17:21:51.063Z,78.60
2022-10-24T17:24:20.755Z,77.70
2022-10-24T17:26:48.619Z,78.00
2022-10-24T17:29:23.231Z,77.80
2022-10-24T17:31:50.111Z,78.10
2022-10-24T17:34:17.060Z,78.80
2022-10-24T17:36:49.941Z,78.60
2022-10-24T17:39:27.011Z,78.20
2022-10-24T17:41:54.594Z,78.10
2022-10-24T17:44:22.320Z,78.10
2022-10-24T17:46:52.337Z,78.00
2022-10-24T17:49:22.839Z,78.50
2022-10-24T17:51:53.117Z,79.40
2022-10-24T17:54:19.819Z,79.00
2022-10-24T17:56:48.987Z,79.70
2022-10-24T17:59:15.816Z,80.70
2022-10-24T18:01:42.887Z,81.30
2022-10-24T18:04:10.220Z,81.70
2022-10-24T18:06:39.468Z,81.30
2022-10-24T18:09:18.649Z,81.30
2022-10-24T18:11:45.447Z,81.90
2022-10-24T18:14:12.194Z,82.50
2022-10-24T18:16:39.490Z,82.40
2022-10-24T18:19:06.943Z,83.40
2022-10-24T18:21:34.174Z,83.90
2022-10-24T18:24:00.874Z,84.50
2022-10-24T18:26:27.978Z,84.70
2022-10-24T18:28:56.072Z,84.50
2022-10-24T18:31:28.259Z,84.80
2022-10-24T18:33:55.460Z,84.70
2022-10-24T18:36:25.021Z,85.00
2022-10-24T18:38:56.213Z,84.80
2022-10-24T18:41:26.005Z,84.00
2022-10-24T18:43:53.094Z,84.60
2022-10-24T18:46:20.162Z,84.80
2022-10-24T18:48:47.231Z,85.10
2022-10-24T18:51:34.853Z,85.40
2022-10-24T18:54:09.294Z,86.40
2022-10-24T18:56:36.260Z,86.30
2022-10-24T18:59:03.117Z,86.50
2022-10-24T19:01:36.870Z,86.50
2022-10-24T19:04:19.314Z,86.30
2022-10-24T19:06:47.780Z,86.30
2022-10-24T19:09:20.863Z,86.40
2022-10-24T19:11:48.983Z,86.30
2022-10-24T19:14:16.811Z,86.40
2022-10-24T19:16:45.875Z,86.40
2022-10-24T19:19:16.556Z,87.10
2022-10-24T19:21:45.334Z,87.80
2022-10-24T19:24:15.621Z,87.60
2022-10-24T19:26:42.382Z,87.20
2022-10-24T19:29:09.080Z,86.30
2022-10-24T19:31:36.909Z,86.70
2022-10-24T19:34:04.132Z,86.40
2022-10-24T19:36:31.235Z,86.40
2022-10-24T19:38:57.990Z,85.50
2022-10-24T19:41:24.917Z,85.20
2022-10-24T19:43:51.682Z,85.50
2022-10-24T19:46:20.359Z,85.60
2022-10-24T19:48:51.251Z,86.00
2022-10-24T19:51:19.210Z,85.90
2022-10-24T19:53:47.315Z,86.20
2022-10-24T19:56:25.115Z,86.40
2022-10-24T19:58:52.964Z,86.40
2022-10-24T20:01:22.063Z,86.30
2022-10-24T20:03:50.006Z,86.20
2022-10-24T20:06:17.970Z,86.20
2022-10-24T20:08:47.048Z,86.10
2022-10-24T20:11:15.634Z,86.90
2022-10-24T20:13:43.056Z,86.00
2022-10-24T20:16:13.477Z,85.50
2022-10-24T20:21:17.704Z,86.10
2022-10-24T20:23:46.742Z,86.90
2022-10-24T20:26:16.969Z,86.80
2022-10-24T20:28:45.788Z,87.20
2022-10-24T20:31:23.454Z,87.70
2022-10-24T20:33:50.904Z,87.20
2022-10-24T20:36:18.510Z,87.10
2022-10-24T20:38:45.518Z,86.80
2022-10-24T20:41:12.450Z,86.80
2022-10-24T20:43:39.269Z,86.30
2022-10-24T20:46:06.951Z,85.70
2022-10-24T20:48:34.693Z,85.50
2022-10-24T20:51:14.055Z,84.80
2022-10-24T20:53:41.751Z,85.00
2022-10-24T20:56:14.511Z,86.00
2022-10-24T20:58:43.095Z,85.00
2022-10-24T21:01:18.271Z,83.60
2022-10-24T21:03:45.172Z,83.40
2022-10-24T21:06:27.295Z,83.10
2022-10-24T21:08:58.058Z,83.50
2022-10-24T21:11:27.937Z,83.80
2022-10-24T21:14:03.597Z,83.40
2022-10-24T21:16:30.740Z,84.00
2022-10-24T21:18:58.401Z,84.70
2022-10-24T21:21:26.288Z,85.60
2022-10-24T21:24:02.407Z,85.60
2022-10-24T21:26:32.984Z,84.60
2022-10-24T21:29:08.843Z,85.70
2022-10-24T21:31:41.730Z,86.10
2022-10-24T21:34:08.456Z,86.10
2022-10-24T21:36:35.284Z,86.60
2022-10-24T21:39:02.043Z,86.10
2022-10-24T21:41:29.000Z,86.10
2022-10-24T21:43:55.832Z,86.10
2022-10-24T21:46:29.097Z,87.10
2022-10-24T21:48:56.736Z,87.30
2022-10-24T21:51:35.486Z,87.90
2022-10-24T21:54:06.208Z,87.40
2022-10-24T21:56:36.720Z,87.30
2022-10-24T21:59:06.440Z,87.30
2022-10-24T22:01:36.187Z,87.00
2022-10-24T22:04:04.294Z,86.80
2022-10-24T22:06:32.492Z,87.30
2022-10-24T22:08:59.365Z,86.80
2022-10-24T22:11:29.184Z,86.90
2022-10-24T22:13:56.928Z,87.50
2022-10-24T22:16:26.025Z,87.60
2022-10-24T22:18:53.273Z,87.50
2022-10-24T22:21:25.567Z,87.60
2022-10-24T22:23:53.009Z,87.70
2022-10-24T22:26:19.946Z,87.30
2022-10-24T22:28:46.793Z,87.00
2022-10-24T22:31:14.680Z,87.50
2022-10-24T22:33:42.767Z,88.00
2022-10-24T22:36:18.001Z,88.40
2022-10-24T22:38:44.941Z,87.80
2022-10-24T22:41:12.244Z,87.90
2022-10-24T22:43:39.380Z,89.00
2022-10-24T22:46:47.821Z,89.40
2022-10-24T22:49:45.882Z,89.50
2022-10-24T22:52:13.608Z,90.10
2022-10-24T22:54:40.667Z,90.10
2022-10-24T22:57:08.012Z,90.10
2022-10-24T22:59:35.104Z,89.80
2022-10-24T23:02:26.890Z,89.40
2022-10-24T23:05:05.122Z,90.10
2022-10-24T23:07:54.878Z,90.60
2022-10-24T23:10:23.219Z,90.90
2022-10-24T23:12:50.337Z,90.90
2022-10-24T23:15:19.351Z,91.10
2022-10-24T23:17:47.139Z,91.50
2022-10-24T23:20:28.507Z,91.70
2022-10-24T23:23:09.099Z,91.70
2022-10-24T23:25:50.488Z,91.80
2022-10-24T23:28:21.308Z,91.70
2022-10-24T23:30:48.453Z,91.80
2022-10-24T23:33:23.504Z,91.90
2022-10-24T23:35:54.997Z,92.20
2022-10-24T23:38:21.920Z,92.20
2022-10-24T23:40:49.005Z,92.20
2022-10-24T23:43:19.229Z,92.20
2022-10-24T23:46:25.401Z,92.10
2022-10-24T23:49:03.592Z,92.40
2022-10-24T23:51:42.573Z,92.60
2022-10-24T23:54:11.914Z,92.80
2022-10-24T23:56:39.226Z,93.20
2022-10-24T23:59:06.271Z,93.50
